Huntington, IN

8:39 PM EDT on June 22, 2017 (GMT -0400)
Zahn St. | | Change Station

Elev 784 ft 40.88 °N, 85.50 °W | Updated 3 seconds ago

Mostly Cloudy
Mostly Cloudy
79.3 °F
Feels Like 82 °F
N
2.0
Wind Variable Wind from SW
Gusts 2.5 mph

Today
High -- | Low -- °F
--% Chance of Precip.
Yesterday
High -- | Low -- °F
Precip. -- in
Pressure 29.81 in
Visibility 10.0 miles
Clouds Few 3500 ft
Few 9000 ft
Scattered Clouds 25000 ft
Heat Index 82 °F
Dew Point 69 °F
Humidity 70%
Rainfall 0.00 in
Snow Depth Not available.
6:10 AM 9:17 PM
Waning Crescent, 2% visible
METAR KFWA 222354Z 20020G27KT 10SM FEW035 FEW090 SCT250 27/19 A2982 RMK AO2 PK WND 21029/2339 SLP092 60000 T02720189 10311 20272 56012 $
Pressure 29.81 in
Visibility 10.0 miles
Clouds Few 3500 ft
Few 9000 ft
Scattered Clouds 25000 ft
Heat Index 82 °F
Dew Point 69 °F
Humidity 70%
Rainfall 0.00 in
Snow Depth Not available.
6:10 AM 9:17 PM
Waning Crescent, 2% visible
METAR KFWA 222354Z 20020G27KT 10SM FEW035 FEW090 SCT250 27/19 A2982 RMK AO2 PK WND 21029/2339 SLP092 60000 T02720189 10311 20272 56012 $

Get Severe Weather Alerts

Thanks for signing up!

Be on the lookout for a verification email in your inbox.

You'll start receiving the daily forecast at 6 AM.

×

10-Day Weather Forecast

Almanac

Astronomy

Jun. 22, 2017 Rise Set
Actual Time
Civil Twilight
Nautical Twilight
Astronomical Twilight
Moon
Length of Visible Light
Length of Day
Tomorrow will be .
, % of the Moon is Illuminated

Today's Extremes

State Highs State Lows

Community

WunderPhotos

Category 6

Welcome to Category 6. This is the collective home for Weather Underground's featured writeups by Dr. Jeff Masters (right), Bob Henson (left), Chris Burt, and other regular contributors.

Nearby

Air Quality

  Air Quality AQ Index Pollutant
Not available.

Snow Depth

Station Depth Elevation

Earthquake Activity

City Distance Mag. Time & Date
Minimum magnitude displayed is 2.5.

Coastal Water Temperatures

Place Temperature

Stations

Nearby Weather Stations

Station Location Temp. Windchill Dew Point Humidity Wind Precip. Elev Updated Type
                   

Watches & Warnings

There are currently no watches in effect.